Time;durP1;ratioP1;P1;durP2;ratioP2;P2;SDS_P1;SDS_P2;PMS_P1;PMS_P2;Temp;Humidity;BMP_temperature;BMP_pressure;BME280_temperature;BME280_humidity;BME280_pressure;Samples;Min_cycle;Max_cycle;Signal;HPM_P1;HPM_P2
2022/08/20 00:01:32;;;;;;;26.55;17.25;;;;;;;18.33;100.00;101371.78;5243933;28;20070;-68
2022/08/20 00:04:04;;;;;;;24.17;17.25;;;;;;;18.32;100.00;101368.22;5205806;28;20524;-67
2022/08/20 00:06:35;;;;;;;28.65;18.55;;;;;;;18.36;100.00;101372.31;5207420;28;20480;-68
2022/08/20 00:09:06;;;;;;;27.67;17.63;;;;;;;18.36;100.00;101372.31;5202190;28;20108;-68
2022/08/20 00:11:38;;;;;;;24.90;16.85;;;;;;;18.35;100.00;101367.94;5203683;28;20033;-68
2022/08/20 00:14:09;;;;;;;27.50;17.63;;;;;;;18.35;100.00;101364.34;5199662;28;20029;-68
2022/08/20 00:16:41;;;;;;;25.02;17.95;;;;;;;18.36;100.00;101358.81;5207566;28;20029;-67
2022/08/20 00:19:12;;;;;;;23.08;16.70;;;;;;;18.32;100.00;101356.59;5197860;28;20025;-67
2022/08/20 00:21:44;;;;;;;23.50;17.23;;;;;;;18.47;100.00;101346.91;5208290;28;20098;-68
2022/08/20 00:24:15;;;;;;;30.08;17.88;;;;;;;18.39;100.00;101355.81;5196887;28;20026;-68
2022/08/20 00:26:46;;;;;;;29.55;17.00;;;;;;;18.41;100.00;101353.78;5203525;28;20130;-68
2022/08/20 00:29:17;;;;;;;32.92;17.70;;;;;;;18.38;100.00;101350.53;5200596;28;20030;-68
2022/08/20 00:31:49;;;;;;;25.27;17.33;;;;;;;18.37;100.00;101362.34;5202341;28;20082;-67
2022/08/20 00:34:21;;;;;;;23.63;16.35;;;;;;;18.45;100.00;101354.31;5203465;28;20030;-68
2022/08/20 00:36:52;;;;;;;25.08;16.73;;;;;;;18.46;100.00;101357.88;5201047;28;20121;-67
2022/08/20 00:39:23;;;;;;;26.30;16.67;;;;;;;18.42;100.00;101349.22;5198334;28;20637;-68
2022/08/20 00:41:55;;;;;;;25.63;16.95;;;;;;;18.52;100.00;101355.38;5206611;28;20498;-67
2022/08/20 00:44:27;;;;;;;25.27;16.48;;;;;;;18.38;100.00;101347.84;5205117;28;20382;-67
2022/08/20 00:46:59;;;;;;;24.13;16.35;;;;;;;18.42;100.00;101350.06;5202767;28;20723;-68
2022/08/20 00:49:31;;;;;;;28.05;17.10;;;;;;;18.36;100.00;101356.09;5202500;28;20026;-67
2022/08/20 00:52:14;;;;;;;25.58;16.23;;;;;;;18.44;100.00;101357.19;5212474;28;20111;-68
2022/08/20 00:54:50;;;;;;;23.75;15.98;;;;;;;18.35;100.00;101357.13;5232823;28;20058;-67
2022/08/20 00:57:33;;;;;;;26.05;16.90;;;;;;;18.45;100.00;101357.03;5201725;28;20489;-67
2022/08/20 01:00:14;;;;;;;26.38;16.67;;;;;;;18.46;100.00;101358.72;5201113;28;20026;-68
2022/08/20 01:02:46;;;;;;;26.17;16.98;;;;;;;18.33;100.00;101359.13;5204808;28;20058;-67
2022/08/20 01:05:18;;;;;;;24.77;15.57;;;;;;;18.37;100.00;101356.94;5217231;28;20035;-68
2022/08/20 01:07:53;;;;;;;24.52;15.82;;;;;;;18.33;100.00;101361.84;5210192;28;22694;-67
2022/08/20 01:10:31;;;;;;;21.38;15.90;;;;;;;18.33;100.00;101360.97;5209983;28;20036;-67
2022/08/20 01:13:08;;;;;;;25.30;16.45;;;;;;;18.31;100.00;101362.97;5209696;28;20044;-67
2022/08/20 01:15:44;;;;;;;25.27;17.77;;;;;;;18.19;100.00;101360.50;5217152;28;20025;-68
2022/08/20 01:18:19;;;;;;;26.33;17.90;;;;;;;18.16;100.00;101358.13;5203177;28;20021;-67
2022/08/20 01:20:56;;;;;;;23.90;17.05;;;;;;;18.21;100.00;101353.09;5212735;28;20037;-67
2022/08/20 01:23:59;;;;;;;28.90;18.85;;;;;;;18.17;100.00;101350.88;5210749;28;20433;-67
2022/08/20 01:26:37;;;;;;;29.67;18.35;;;;;;;18.09;100.00;101359.75;5205653;28;20049;-67
2022/08/20 01:29:13;;;;;;;26.98;18.25;;;;;;;18.09;100.00;101358.91;5201923;28;20042;-67
2022/08/20 01:31:45;;;;;;;32.83;20.30;;;;;;;18.06;100.00;101359.19;5202780;28;20668;-68
2022/08/20 01:34:19;;;;;;;31.20;20.33;;;;;;;18.08;100.00;101371.53;5206375;28;20025;-67
2022/08/20 01:36:51;;;;;;;;;;;;;;;18.13;100.00;101363.84;5202835;28;20038;-67
2022/08/20 01:39:28;;;;;;;29.42;20.25;;;;;;;18.12;100.00;101362.16;5205402;28;20220;-67
2022/08/20 01:42:11;;;;;;;33.55;21.30;;;;;;;18.11;100.00;101354.19;5205157;28;20049;-67
2022/08/20 01:44:45;;;;;;;33.92;21.30;;;;;;;18.04;100.00;101364.75;5205640;28;20137;-68
2022/08/20 01:47:21;;;;;;;34.15;20.60;;;;;;;18.03;100.00;101354.97;5202663;28;20065;-67
2022/08/20 01:49:58;;;;;;;33.95;21.10;;;;;;;17.98;100.00;101362.66;5202688;28;20134;-67
2022/08/20 01:52:40;;;;;;;29.95;21.63;;;;;;;17.95;100.00;101357.56;5202987;28;20088;-70
2022/08/20 01:55:12;;;;;;;32.90;20.60;;;;;;;17.95;100.00;101357.56;5209295;28;20026;-68
2022/08/20 01:57:43;;;;;;;38.10;21.98;;;;;;;17.92;100.00;101363.28;5201967;28;20033;-67
2022/08/20 02:00:17;;;;;;;38.55;22.75;;;;;;;17.89;100.00;101359.06;5205737;28;20694;-67
2022/08/20 02:02:49;;;;;;;33.97;21.88;;;;;;;17.87;100.00;101366.41;5204420;28;20045;-67
2022/08/20 02:05:20;;;;;;;37.75;23.05;;;;;;;17.87;100.00;101355.63;5203874;28;20030;-68
2022/08/20 02:07:52;;;;;;;37.30;22.95;;;;;;;17.90;100.00;101366.13;5216656;28;20086;-67
2022/08/20 02:10:23;;;;;;;34.90;23.45;;;;;;;17.90;100.00;101370.69;5211537;28;20549;-68
2022/08/20 02:12:55;;;;;;;39.08;24.52;;;;;;;17.89;100.00;101359.06;5208233;28;20574;-68
2022/08/20 02:15:27;;;;;;;40.80;25.55;;;;;;;17.85;100.00;101365.72;5212335;28;20378;-67
2022/08/20 02:17:58;;;;;;;37.60;25.02;;;;;;;18.00;100.00;101371.47;5203859;28;20472;-67
2022/08/20 02:20:30;;;;;;;39.60;25.10;;;;;;;17.99;100.00;101364.38;5235153;28;20037;-67
2022/08/20 02:23:04;;;;;;;48.67;26.58;;;;;;;17.90;100.00;101368.00;5204637;28;20497;-67
2022/08/20 02:25:39;;;;;;;39.42;25.27;;;;;;;17.90;100.00;101363.44;5213082;28;20214;-67
2022/08/20 02:28:13;;;;;;;41.78;25.20;;;;;;;17.90;100.00;101373.38;5209716;28;20057;-68
2022/08/20 02:30:48;;;;;;;40.58;24.25;;;;;;;17.84;100.00;101374.84;5213688;28;20053;-67
2022/08/20 02:33:21;;;;;;;39.42;24.85;;;;;;;17.91;100.00;101366.97;5235867;28;20373;-67
2022/08/20 02:35:55;;;;;;;44.53;25.48;;;;;;;17.85;100.00;101365.72;5206782;28;20447;-67
2022/08/20 02:38:26;;;;;;;40.63;24.40;;;;;;;17.82;100.00;101357.91;5207074;28;20032;-68
2022/08/20 02:40:57;;;;;;;38.95;24.27;;;;;;;17.74;100.00;101364.09;5209488;28;20030;-67
2022/08/20 02:43:30;;;;;;;39.47;24.20;;;;;;;17.82;100.00;101364.16;5199815;28;20126;-67
2022/08/20 02:46:03;;;;;;;38.80;23.40;;;;;;;17.74;100.00;101379.44;5200131;28;20030;-67
2022/08/20 02:48:34;;;;;;;38.08;23.25;;;;;;;17.71;100.00;101377.88;5201700;28;20117;-67
2022/08/20 02:51:06;;;;;;;44.10;23.65;;;;;;;17.76;100.00;101385.53;5202230;28;20043;-67
2022/08/20 02:53:40;;;;;;;39.53;23.58;;;;;;;17.66;100.00;101382.88;5204555;28;20503;-67
2022/08/20 02:56:12;;;;;;;39.13;24.20;;;;;;;17.65;100.00;101381.16;5201029;28;20112;-67
2022/08/20 02:58:44;;;;;;;46.88;26.05;;;;;;;17.63;100.00;101375.91;5201345;28;20118;-68
2022/08/20 03:01:16;;;;;;;38.55;25.95;;;;;;;17.68;100.00;101374.63;5202870;28;20041;-67
2022/08/20 03:03:47;;;;;;;42.22;27.25;;;;;;;17.62;100.00;101381.47;5202382;28;20033;-67
2022/08/20 03:06:20;;;;;;;48.53;28.42;;;;;;;17.71;100.00;101372.47;5202996;28;20376;-68
2022/08/20 03:08:52;;;;;;;48.03;29.17;;;;;;;17.59;100.00;101381.78;5197065;28;20102;-67
2022/08/20 03:11:24;;;;;;;45.58;29.20;;;;;;;17.64;100.00;101376.75;5207918;28;20030;-67
2022/08/20 03:13:55;;;;;;;48.10;29.20;;;;;;;17.60;100.00;101375.38;5202423;28;20120;-67
2022/08/20 03:16:26;;;;;;;49.58;29.50;;;;;;;17.64;100.00;101382.16;5222789;28;20023;-67
2022/08/20 03:18:57;;;;;;;54.40;31.50;;;;;;;17.58;100.00;101380.91;5219701;28;20034;-67
2022/08/20 03:21:29;;;;;;;46.83;29.92;;;;;;;17.59;100.00;101379.94;5262213;28;20030;-67
2022/08/20 03:24:00;;;;;;;46.38;30.13;;;;;;;17.56;100.00;101379.38;5202280;28;20034;-67
2022/08/20 03:26:32;;;;;;;48.40;30.50;;;;;;;17.49;100.00;101380.97;5226825;28;20039;-67
2022/08/20 03:29:03;;;;;;;48.05;30.42;;;;;;;17.44;100.00;101387.66;5207944;28;20036;-67
2022/08/20 03:31:34;;;;;;;50.05;30.23;;;;;;;17.40;100.00;101390.81;5223139;28;20040;-67
2022/08/20 03:34:06;;;;;;;52.83;30.63;;;;;;;17.51;100.00;101390.63;5200669;28;20065;-67
2022/08/20 03:36:37;;;;;;;47.13;28.65;;;;;;;17.34;100.00;101389.56;5208958;28;20022;-67
2022/08/20 03:39:11;;;;;;;48.70;29.02;;;;;;;17.34;100.00;101394.13;5200856;28;20465;-67
2022/08/20 03:41:43;;;;;;;48.75;28.38;;;;;;;17.40;100.00;101399.75;5208149;28;20033;-67
2022/08/20 03:44:14;;;;;;;46.92;28.17;;;;;;;17.36;100.00;101403.75;5203326;28;20054;-67
2022/08/20 03:46:45;;;;;;;42.45;26.25;;;;;;;17.46;100.00;101400.16;5196173;28;20129;-67
2022/08/20 03:49:17;;;;;;;45.53;26.05;;;;;;;17.37;100.00;101400.06;5201983;28;20517;-67
2022/08/20 03:51:48;;;;;;;40.85;25.90;;;;;;;17.41;100.00;101393.38;5206748;28;20041;-67
2022/08/20 03:54:20;;;;;;;40.10;24.75;;;;;;;17.16;100.00;101399.41;5203501;28;20391;-67
2022/08/20 03:56:51;;;;;;;43.30;24.52;;;;;;;17.17;100.00;101404.66;5205191;28;20030;-67
2022/08/20 03:59:22;;;;;;;37.35;24.25;;;;;;;17.29;100.00;101401.78;5201779;28;20672;-68
2022/08/20 04:01:54;;;;;;;49.55;26.98;;;;;;;17.46;100.00;101405.56;5202806;28;20045;-67
2022/08/20 04:04:25;;;;;;;44.67;24.42;;;;;;;17.21;100.00;101407.91;5208807;28;20034;-67
2022/08/20 04:06:57;;;;;;;39.33;24.67;;;;;;;17.11;100.00;101410.66;5217306;28;20103;-67
2022/08/20 04:09:28;;;;;;;43.00;24.58;;;;;;;17.11;100.00;101401.72;5210397;28;20483;-67
2022/08/20 04:12:00;;;;;;;42.83;25.08;;;;;;;17.10;100.00;101408.09;5210426;28;20147;-67
2022/08/20 04:14:32;;;;;;;40.85;24.40;;;;;;;17.08;100.00;101410.09;5202977;28;20079;-67
2022/08/20 04:17:08;;;;;;;45.35;26.02;;;;;;;17.22;100.00;101412.31;5202767;28;20141;-67
2022/08/20 04:19:40;;;;;;;41.63;24.70;;;;;;;17.02;100.00;101406.97;5210114;28;20034;-67
2022/08/20 04:22:12;;;;;;;39.15;25.65;;;;;;;17.17;100.00;101412.75;5204285;28;20032;-67
2022/08/20 04:24:44;;;;;;;41.40;25.90;;;;;;;17.08;100.00;101415.47;5220100;28;20019;-67
2022/08/20 04:27:15;;;;;;;38.97;25.40;;;;;;;16.96;100.00;101425.59;5209191;28;20429;-67
2022/08/20 04:29:46;;;;;;;42.50;28.95;;;;;;;17.04;100.00;101420.31;5207111;28;20487;-67
2022/08/20 04:32:20;;;;;;;42.15;28.95;;;;;;;16.95;100.00;101413.09;5206219;28;20507;-68
2022/08/20 04:34:51;;;;;;;48.13;31.90;;;;;;;17.00;100.00;101421.59;5233363;28;20022;-67
2022/08/20 04:37:23;;;;;;;50.22;32.05;;;;;;;17.04;100.00;101425.69;5206077;28;20365;-66
2022/08/20 04:42:44;;;;;;;56.47;34.78;;;;;;;17.10;100.00;101424.28;5207811;28;20045;-65
2022/08/20 04:45:15;;;;;;;54.30;35.72;;;;;;;17.07;100.00;101435.34;5201150;28;20038;-65
2022/08/20 04:47:48;;;;;;;61.20;35.65;;;;;;;17.04;100.00;101434.63;5204283;28;20064;-65
2022/08/20 04:50:20;;;;;;;58.22;36.00;;;;;;;17.10;100.00;101446.69;5203572;28;20114;-65
2022/08/20 04:52:51;;;;;;;53.67;34.90;;;;;;;17.15;100.00;101440.88;5204281;28;20038;-65
2022/08/20 04:55:22;;;;;;;57.33;36.50;;;;;;;17.13;100.00;101442.88;5198882;28;20411;-65
2022/08/20 04:57:54;;;;;;;54.83;37.13;;;;;;;17.10;100.00;101443.97;5202109;28;20038;-65
2022/08/20 05:00:26;;;;;;;53.72;35.63;;;;;;;17.02;100.00;101446.56;5200262;28;20037;-66
2022/08/20 05:02:57;;;;;;;51.15;35.25;;;;;;;17.03;100.00;101449.13;5204308;28;20056;-65
2022/08/20 05:05:29;;;;;;;57.50;35.58;;;;;;;16.96;100.00;101456.06;5202159;28;20037;-65
2022/08/20 05:08:01;;;;;;;56.08;34.92;;;;;;;16.96;100.00;101457.94;5206178;28;20029;-65
2022/08/20 05:10:33;;;;;;;59.15;36.17;;;;;;;16.97;100.00;101455.09;5208578;28;20045;-65
2022/08/20 05:13:06;;;;;;;58.08;34.80;;;;;;;17.08;100.00;101459.47;5226528;28;20094;-65
2022/08/20 05:15:38;;;;;;;55.00;35.47;;;;;;;16.95;100.00;101462.47;5216679;28;20562;-65
2022/08/20 05:18:11;;;;;;;50.47;33.03;;;;;;;17.07;100.00;101459.59;5228824;28;20032;-65
2022/08/20 05:20:42;;;;;;;49.33;32.72;;;;;;;17.05;100.00;101457.06;5206957;28;20025;-66
2022/08/20 05:23:15;;;;;;;46.92;31.50;;;;;;;16.98;100.00;101462.19;5200892;28;20018;-66
2022/08/20 05:25:51;;;;;;;51.55;31.80;;;;;;;17.05;100.00;101457.91;5196657;28;20472;-66
2022/08/20 05:28:25;;;;;;;54.45;32.85;;;;;;;17.10;100.00;101462.03;5201172;28;20033;-66
2022/08/20 05:30:58;;;;;;;52.10;33.63;;;;;;;17.02;100.00;101463.59;5210620;28;20044;-67
2022/08/20 05:33:30;;;;;;;53.17;34.22;;;;;;;17.01;100.00;101464.59;5205522;28;20026;-66
2022/08/20 05:36:05;;;;;;;51.22;33.15;;;;;;;17.00;100.00;101470.13;5204389;28;20030;-66
2022/08/20 05:38:36;;;;;;;58.45;34.55;;;;;;;17.02;100.00;101470.84;5221797;28;20375;-67
2022/08/20 05:41:08;;;;;;;49.60;32.60;;;;;;;17.01;100.00;101467.28;5199132;28;20078;-66
2022/08/20 05:43:39;;;;;;;54.67;32.95;;;;;;;17.13;100.00;101473.38;5207933;28;20060;-66
2022/08/20 05:46:12;;;;;;;51.42;33.63;;;;;;;17.05;100.00;101473.25;5200854;28;20519;-66
2022/08/20 05:48:44;;;;;;;54.75;33.65;;;;;;;17.08;100.00;101472.09;5198898;28;20050;-66
2022/08/20 05:51:15;;;;;;;59.03;35.08;;;;;;;17.21;100.00;101475.34;5199849;28;20538;-66
2022/08/20 05:53:47;;;;;;;58.47;35.97;;;;;;;17.35;100.00;101485.66;5200045;28;20488;-66
2022/08/20 05:56:18;;;;;;;58.15;35.88;;;;;;;17.43;100.00;101477.69;5201745;28;20399;-66
2022/08/20 05:58:49;;;;;;;60.50;37.67;;;;;;;17.37;100.00;101478.28;5197513;28;20080;-66
2022/08/20 06:01:21;;;;;;;59.75;37.17;;;;;;;17.50;100.00;101482.50;5197902;28;20590;-67
2022/08/20 06:06:42;;;;;;;56.50;36.28;;;;;;;17.61;100.00;101483.16;5204570;28;20041;-67
2022/08/20 06:09:16;;;;;;;49.72;33.55;;;;;;;17.55;100.00;101486.47;5204720;28;20034;-66
2022/08/20 06:11:47;;;;;;;51.15;33.88;;;;;;;17.66;100.00;101492.66;5205944;28;20395;-66
2022/08/20 06:14:19;;;;;;;51.92;33.83;;;;;;;17.49;100.00;101491.56;5195489;28;20037;-66
2022/08/20 06:16:50;;;;;;;51.88;33.97;;;;;;;17.66;100.00;101492.66;5207884;28;20068;-66
2022/08/20 06:19:22;;;;;;;55.63;33.85;;;;;;;17.60;100.00;101494.97;5202523;28;20030;-66
2022/08/20 06:21:55;;;;;;;55.50;33.95;;;;;;;17.57;100.00;101491.72;5206890;28;20130;-66
2022/08/20 06:24:26;;;;;;;54.47;34.17;;;;;;;17.63;100.00;101501.91;5203466;28;20037;-66
2022/08/20 06:26:59;;;;;;;54.42;33.85;;;;;;;17.70;100.00;101489.53;5201085;28;20038;-66
2022/08/20 06:29:32;;;;;;;59.05;35.33;;;;;;;17.77;100.00;101482.53;5201979;28;20037;-68
2022/08/20 06:32:03;;;;;;;49.53;32.65;;;;;;;17.90;100.00;101489.47;5202560;28;20225;-66
2022/08/20 06:34:35;;;;;;;50.80;33.17;;;;;;;17.92;100.00;101485.63;5200066;28;20042;-67
2022/08/20 06:37:22;;;;;;;51.33;32.08;;;;;;;18.02;100.00;101493.66;5204361;28;20391;-66
2022/08/20 06:39:53;;;;;;;51.63;31.88;;;;;;;18.03;100.00;101489.97;5207719;28;20033;-66
2022/08/20 06:42:25;;;;;;;47.72;32.20;;;;;;;18.04;100.00;101497.06;5206660;28;20034;-67
2022/08/20 06:44:58;;;;;;;49.63;32.40;;;;;;;18.09;100.00;101492.06;5205801;28;20080;-66
2022/08/20 06:47:30;;;;;;;51.55;33.05;;;;;;;17.94;100.00;101504.38;5207903;28;20078;-66
2022/08/20 06:50:02;;;;;;;48.33;31.67;;;;;;;17.98;100.00;101494.97;5205117;28;20030;-66
2022/08/20 06:52:33;;;;;;;47.85;32.40;;;;;;;18.07;100.00;101502.19;5202624;28;20471;-66
2022/08/20 06:55:07;;;;;;;44.75;31.80;;;;;;;17.99;100.00;101492.13;5194132;28;20405;-67
2022/08/20 06:57:38;;;;;;;46.25;32.50;;;;;;;18.12;100.00;101494.47;5199312;28;20052;-66
2022/08/20 07:00:18;;;;;;;49.17;33.85;;;;;;;18.18;100.00;101499.28;5203224;28;20033;-66
2022/08/20 07:02:49;;;;;;;49.35;34.58;;;;;;;18.21;100.00;101498.94;5207978;28;20056;-66
2022/08/20 07:05:21;;;;;;;52.60;35.15;;;;;;;18.27;100.00;101502.91;5206791;28;20452;-66
2022/08/20 07:07:52;;;;;;;47.03;34.08;;;;;;;18.31;100.00;101507.00;5211013;28;20022;-66
2022/08/20 07:10:24;;;;;;;45.92;33.00;;;;;;;18.32;100.00;101503.31;5207590;28;20053;-67
2022/08/20 07:12:58;;;;;;;46.42;33.50;;;;;;;18.46;100.00;101510.03;5211902;28;20038;-66
2022/08/20 07:15:29;;;;;;;46.45;34.05;;;;;;;18.58;100.00;101506.13;5208282;28;20026;-67
2022/08/20 07:18:03;;;;;;;50.35;33.45;;;;;;;18.49;100.00;101504.34;5210491;28;20064;-67
2022/08/20 07:20:37;;;;;;;47.95;33.47;;;;;;;18.65;100.00;101516.31;5212163;28;20071;-67
2022/08/20 07:23:10;;;;;;;47.88;34.28;;;;;;;18.68;100.00;101514.16;5211618;28;20116;-67
2022/08/20 07:25:42;;;;;;;45.97;33.63;;;;;;;18.82;100.00;101518.19;5205769;28;20034;-67
2022/08/20 07:28:17;;;;;;;50.95;34.22;;;;;;;19.02;100.00;101520.72;5213917;28;20033;-66
2022/08/20 07:33:41;;;;;;;44.65;31.70;;;;;;;19.00;100.00;101521.75;5208013;28;20033;-67
2022/08/20 07:36:13;;;;;;;45.13;32.90;;;;;;;19.00;100.00;101527.16;5211402;28;20391;-67
2022/08/20 07:38:46;;;;;;;43.63;33.03;;;;;;;19.09;100.00;101527.22;5207086;28;20138;-69
2022/08/20 07:41:18;;;;;;;42.65;31.85;;;;;;;19.06;100.00;101528.38;5210248;28;20376;-67
2022/08/20 07:43:49;;;;;;;42.97;32.00;;;;;;;19.12;100.00;101524.19;5207793;28;20078;-67
2022/08/20 07:46:21;;;;;;;44.80;32.20;;;;;;;19.27;100.00;101540.69;5210883;28;20128;-69
2022/08/20 07:48:52;;;;;;;43.72;32.83;;;;;;;19.29;100.00;101546.81;5211018;28;20026;-67
2022/08/20 07:51:23;;;;;;;40.15;30.70;;;;;;;19.29;100.00;101536.84;5203800;28;20101;-67
2022/08/20 07:53:57;;;;;;;37.03;31.02;;;;;;;19.27;100.00;101538.88;5198009;28;20316;-67
2022/08/20 07:56:28;;;;;;;41.20;30.02;;;;;;;19.50;100.00;101549.16;5207552;28;20053;-67
2022/08/20 07:59:00;;;;;;;38.53;30.42;;;;;;;19.52;100.00;101553.44;5204163;28;20109;-67
2022/08/20 08:01:31;;;;;;;38.25;29.50;;;;;;;19.65;100.00;101546.72;5205440;28;20121;-67
2022/08/20 08:04:03;;;;;;;40.78;28.23;;;;;;;19.64;100.00;101556.72;5206519;28;20041;-67
2022/08/20 08:06:34;;;;;;;34.78;28.90;;;;;;;19.74;100.00;101554.75;5208662;28;20030;-67
2022/08/20 08:09:10;;;;;;;38.45;28.33;;;;;;;19.65;100.00;101558.38;5201478;28;20041;-67
2022/08/20 08:11:48;;;;;;;32.92;26.60;;;;;;;19.60;100.00;101566.16;5203884;28;20033;-67
2022/08/20 08:14:25;;;;;;;34.55;27.05;;;;;;;19.43;100.00;101567.91;5204213;28;20075;-67
2022/08/20 08:17:01;;;;;;;34.17;26.05;;;;;;;19.50;100.00;101565.41;5200229;28;20640;-67
2022/08/20 08:19:40;;;;;;;30.10;22.38;;;;;;;19.50;100.00;101566.28;5201697;28;20079;-66
2022/08/20 08:22:15;;;;;;;29.98;21.85;;;;;;;19.72;100.00;101564.06;5204395;28;20479;-67
2022/08/20 08:24:46;;;;;;;25.00;20.20;;;;;;;19.74;100.00;101567.47;5201336;28;20689;-66
2022/08/20 08:27:17;;;;;;;21.05;17.75;;;;;;;19.74;100.00;101570.16;5203276;28;20034;-67
2022/08/20 08:29:48;;;;;;;18.70;15.10;;;;;;;19.61;100.00;101572.41;5203004;28;20387;-67
2022/08/20 08:32:20;;;;;;;18.95;14.32;;;;;;;19.57;100.00;101569.19;5208707;28;20491;-66
2022/08/20 08:34:51;;;;;;;18.00;13.95;;;;;;;19.59;100.00;101559.88;5202090;28;20105;-66
2022/08/20 08:37:22;;;;;;;22.00;15.60;;;;;;;19.71;100.00;101565.03;5209422;28;20038;-67
2022/08/20 08:39:54;;;;;;;24.88;17.65;;;;;;;19.70;100.00;101569.59;5208582;28;20025;-66
2022/08/20 08:42:39;;;;;;;24.73;17.45;;;;;;;19.90;100.00;101567.53;5208519;28;20113;-68
2022/08/20 08:45:15;;;;;;;19.77;16.33;;;;;;;19.87;100.00;101572.44;5201851;28;20042;-67
2022/08/20 08:47:47;;;;;;;17.38;14.82;;;;;;;19.81;100.00;101579.34;5210337;28;20033;-67
2022/08/20 08:50:28;;;;;;;24.15;15.68;;;;;;;19.62;100.00;101579.50;5203886;28;21215;-67
2022/08/20 08:53:01;;;;;;;21.55;14.35;;;;;;;19.64;100.00;101586.50;5198076;28;20360;-66
2022/08/20 08:55:32;;;;;;;21.23;15.15;;;;;;;19.75;100.00;101586.25;5203976;28;20472;-66
2022/08/20 08:58:04;;;;;;;21.73;13.57;;;;;;;19.87;100.00;101581.41;5202515;28;20030;-66
2022/08/20 09:00:36;;;;;;;17.08;11.25;;;;;;;19.87;100.00;101580.56;5203771;28;20412;-67
2022/08/20 09:03:11;;;;;;;14.10;8.95;;;;;;;19.74;100.00;101595.38;5205070;28;20611;-66
2022/08/20 09:05:47;;;;;;;12.80;8.73;;;;;;;19.77;100.00;101594.19;5208301;28;20110;-67
2022/08/20 09:08:26;;;;;;;13.88;9.48;;;;;;;19.87;100.00;101588.69;5201194;28;20049;-68
2022/08/20 09:11:05;;;;;;;16.15;9.88;;;;;;;19.99;100.00;101587.41;5206488;28;20434;-66
2022/08/20 09:13:37;;;;;;;13.15;8.75;;;;;;;20.04;96.85;101587.78;5206861;28;20034;-66
2022/08/20 09:16:10;;;;;;;14.80;7.95;;;;;;;20.17;96.29;101590.91;5214741;28;20471;-66
2022/08/20 09:18:41;;;;;;;15.43;7.88;;;;;;;20.17;98.75;101588.19;5212911;28;20029;-66
2022/08/20 09:21:13;;;;;;;16.95;10.73;;;;;;;20.18;98.24;101592.56;5205191;28;20033;-66
2022/08/20 09:23:44;;;;;;;15.50;10.23;;;;;;;20.31;100.00;101586.72;5209408;28;20487;-66
2022/08/20 09:26:15;;;;;;;13.98;9.73;;;;;;;20.41;100.00;101580.31;5209541;28;20117;-66
2022/08/20 09:28:47;;;;;;;12.90;7.63;;;;;;;20.30;90.71;101587.72;5210947;28;20029;-66
2022/08/20 09:31:18;;;;;;;14.15;8.30;;;;;;;20.23;90.63;101585.81;5210702;28;20057;-66
2022/08/20 09:33:50;;;;;;;13.77;8.80;;;;;;;20.29;94.02;101583.31;5210758;28;20508;-66
2022/08/20 09:36:22;;;;;;;14.25;9.98;;;;;;;20.46;98.37;101577.94;5213558;28;20030;-66
2022/08/20 09:38:53;;;;;;;15.52;9.40;;;;;;;20.49;99.02;101577.63;5210233;28;20030;-67
2022/08/20 09:41:24;;;;;;;11.80;8.68;;;;;;;20.61;97.47;101586.31;5209962;28;20033;-66
2022/08/20 09:43:56;;;;;;;15.05;8.07;;;;;;;20.60;95.37;101579.22;5211640;28;20058;-66
2022/08/20 09:46:27;;;;;;;13.48;10.15;;;;;;;20.55;94.26;101575.09;5209054;28;20686;-67
2022/08/20 09:48:58;;;;;;;14.75;10.07;;;;;;;20.68;98.79;101581.94;5240452;28;20497;-67
2022/08/20 09:51:30;;;;;;;12.63;8.82;;;;;;;20.72;97.11;101577.88;5210755;28;20503;-66
2022/08/20 09:54:01;;;;;;;13.15;8.80;;;;;;;20.79;98.12;101578.91;5207665;28;20045;-66
2022/08/20 09:56:34;;;;;;;14.88;8.68;;;;;;;20.74;93.04;101582.13;5209294;28;20022;-66
2022/08/20 09:59:05;;;;;;;12.38;6.88;;;;;;;20.77;93.49;101583.66;5207869;28;20033;-66
2022/08/20 10:01:37;;;;;;;11.63;7.32;;;;;;;20.81;89.66;101571.47;5205400;28;20037;-66
2022/08/20 10:04:08;;;;;;;11.30;6.50;;;;;;;20.75;88.68;101583.00;5208185;28;20026;-65
2022/08/20 10:06:40;;;;;;;10.05;4.97;;;;;;;20.89;83.71;101581.47;5210633;28;20022;-66
2022/08/20 10:09:12;;;;;;;10.90;3.95;;;;;;;20.93;80.37;101582.84;5214569;28;20076;-65
2022/08/20 10:11:43;;;;;;;10.68;3.45;;;;;;;20.72;77.09;101586.03;5208997;28;20449;-66
2022/08/20 10:14:14;;;;;;;8.98;4.40;;;;;;;20.72;83.99;101577.88;5204219;28;20026;-66
2022/08/20 10:16:45;;;;;;;10.70;5.22;;;;;;;20.87;81.89;101575.38;5208202;28;20490;-66
2022/08/20 10:19:17;;;;;;;12.93;6.95;;;;;;;20.87;83.89;101569.94;5210676;28;20416;-66
2022/08/20 10:21:52;;;;;;;9.45;5.85;;;;;;;21.13;81.56;101588.78;5206058;28;20057;-66
2022/08/20 10:24:25;;;;;;;10.32;4.50;;;;;;;20.98;81.64;101588.63;5207142;28;20389;-65
2022/08/20 10:26:58;;;;;;;10.98;5.05;;;;;;;21.00;78.26;101580.28;5211561;28;20041;-66
2022/08/20 10:29:30;;;;;;;8.23;4.38;;;;;;;;;;5209688;28;20030;-66
2022/08/20 10:32:11;;;;;;;11.43;5.30;;;;;;;21.31;81.65;101584.03;5202591;28;20037;-65
2022/08/20 10:34:45;;;;;;;9.60;4.95;;;;;;;21.39;80.05;101585.06;5209745;28;20047;-66
2022/08/20 10:37:22;;;;;;;12.85;6.00;;;;;;;21.30;79.73;101582.34;5204492;28;20044;-66
2022/08/20 10:39:54;;;;;;;9.00;5.15;;;;;;;21.45;77.86;101581.69;5208685;28;20140;-66
2022/08/20 10:42:25;;;;;;;8.85;5.22;;;;;;;21.63;78.29;101581.50;5206291;28;20454;-66
2022/08/20 10:44:56;;;;;;;10.02;5.70;;;;;;;21.89;79.08;101581.28;5206174;28;20530;-65
2022/08/20 10:47:31;;;;;;;10.93;4.88;;;;;;;22.10;73.39;101583.41;5211398;28;20122;-66
2022/08/20 10:50:07;;;;;;;10.38;4.20;;;;;;;22.27;72.45;101590.50;5209391;28;20038;-65
2022/08/20 10:52:38;;;;;;;9.40;3.45;;;;;;;22.60;71.74;101584.06;5208473;28;20026;-66
2022/08/20 10:55:10;;;;;;;13.20;4.82;;;;;;;22.38;69.99;101594.72;5205069;28;20026;-66
2022/08/20 10:57:42;;;;;;;10.48;4.05;;;;;;;22.44;69.85;101585.03;5206505;28;20034;-66
2022/08/20 11:00:17;;;;;;;6.78;3.25;;;;;;;22.42;68.62;101592.50;5209296;28;20109;-66
2022/08/20 11:02:48;;;;;;;7.10;3.55;;;;;;;22.40;74.56;101589.09;5207177;28;20025;-70
2022/08/20 11:05:19;;;;;;;10.80;3.78;;;;;;;22.33;69.89;101594.41;5210555;28;20053;-68
2022/08/20 11:07:51;;;;;;;10.45;3.80;;;;;;;22.24;68.06;101596.25;5206003;28;20032;-66
2022/08/20 11:10:25;;;;;;;10.02;3.97;;;;;;;22.35;69.08;101591.50;5204509;28;20052;-66
2022/08/20 11:12:56;;;;;;;8.40;2.92;;;;;;;22.49;71.22;101585.31;5207379;28;20045;-66
2022/08/20 11:15:28;;;;;;;6.93;2.80;;;;;;;22.78;68.32;101586.50;5203838;28;20083;-68
2022/08/20 11:17:59;;;;;;;6.80;2.53;;;;;;;23.01;66.84;101584.66;5208604;28;20548;-68
2022/08/20 11:20:30;;;;;;;11.63;3.50;;;;;;;22.69;63.87;101586.56;5210519;28;20211;-68
2022/08/20 11:23:02;;;;;;;14.52;3.58;;;;;;;22.63;66.39;101583.72;5208976;28;20033;-68
2022/08/20 11:25:34;;;;;;;7.28;2.47;;;;;;;22.38;61.93;101589.28;5205387;28;20046;-69
2022/08/20 11:28:06;;;;;;;9.52;2.35;;;;;;;22.20;60.64;101586.78;5208187;28;20042;-68
2022/08/20 11:30:37;;;;;;;6.85;2.50;;;;;;;22.16;65.41;101588.16;5207998;28;20476;-68
2022/08/20 11:33:09;;;;;;;8.27;2.70;;;;;;;22.11;65.52;101585.09;5208454;28;20034;-67
2022/08/20 11:35:40;;;;;;;12.52;2.63;;;;;;;22.13;70.08;101586.63;5209151;28;20025;-68
2022/08/20 11:38:11;;;;;;;10.38;2.85;;;;;;;22.14;65.91;101584.75;5202474;28;20030;-67
2022/08/20 11:40:45;;;;;;;10.15;2.75;;;;;;;22.12;68.18;101587.66;5208951;28;20506;-67